Time;durP1;ratioP1;P1;durP2;ratioP2;P2;SDS_P1;SDS_P2;PMS_P1;PMS_P2;Temp;Humidity;BMP_temperature;BMP_pressure;BME280_temperature;BME280_humidity;BME280_pressure;Samples;Min_cycle;Max_cycle;Signal;HPM_P1;HPM_P2
2022/01/11 00:02:04;;;;;;;1.55;1.55;;;;;;;;;;1862627;76;26286;-32
2022/01/11 00:04:32;;;;;;;1.40;1.40;;;;;;;;;;1857993;76;26304;-32
2022/01/11 00:07:02;;;;;;;1.60;1.60;;;;;;;;;;1854306;76;26343;-33
2022/01/11 00:09:38;;;;;;;1.60;1.50;;;;;;;;;;1868128;75;26336;-31
2022/01/11 00:12:00;;;;;;;1.55;1.55;;;;;;;;;;1862121;76;27342;-31
2022/01/11 00:14:28;;;;;;;1.45;1.35;;;;;;;;;;1857132;76;26347;-33
2022/01/11 00:16:55;;;;;;;1.50;1.50;;;;;;;;;;1863297;76;26900;-33
2022/01/11 00:19:23;;;;;;;1.32;1.32;;;;;;;;;;1789724;78;26777;-31
2022/01/11 00:21:51;;;;;;;1.37;1.37;;;;;;;;;;1863784;75;26328;-36
2022/01/11 00:24:32;;;;;;;1.65;1.55;;;;;;;;;;1859909;76;26843;-37
2022/01/11 00:26:57;;;;;;;1.57;1.57;;;;;;;;;;1862471;75;26309;-29
2022/01/11 00:29:25;;;;;;;1.45;1.45;;;;;;;;;;1857313;76;26289;-28
2022/01/11 00:31:54;;;;;;;1.52;1.50;;;;;;;;;;1863137;76;26258;-37
2022/01/11 00:34:23;;;;;;;1.40;1.40;;;;;;;;;;1859539;75;26336;-29
2022/01/11 00:36:50;;;;;;;1.40;1.40;;;;;;;;;;1860450;76;26256;-26
2022/01/11 00:39:17;;;;;;;1.50;1.50;;;;;;;;;;1853662;76;26647;-28
2022/01/11 00:41:45;;;;;;;1.30;1.30;;;;;;;;;;1864669;76;26299;-29
2022/01/11 00:44:12;;;;;;;1.40;1.40;;;;;;;;;;1866418;75;26350;-36
2022/01/11 00:46:40;;;;;;;1.32;1.32;;;;;;;;;;1860639;75;26316;-31
2022/01/11 00:49:08;;;;;;;1.57;1.57;;;;;;;;;;1874794;74;26277;-33
2022/01/11 00:51:36;;;;;;;1.50;1.50;;;;;;;;;;1881879;75;26270;-38
2022/01/11 00:54:03;;;;;;;1.60;1.50;;;;;;;;;;1877597;75;26320;-35
2022/01/11 00:56:30;;;;;;;1.47;1.47;;;;;;;;;;1880322;75;26197;-30
2022/01/11 00:58:58;;;;;;;1.40;1.40;;;;;;;;;;1876833;74;26351;-30
2022/01/11 01:01:27;;;;;;;1.55;1.55;;;;;;;;;;1872632;75;26237;-28
2022/01/11 01:03:54;;;;;;;1.42;1.42;;;;;;;;;;1880945;75;26282;-33
2022/01/11 01:06:21;;;;;;;1.50;1.50;;;;;;;;;;1882244;75;26830;-25
2022/01/11 01:08:49;;;;;;;1.55;1.45;;;;;;;;;;1879015;75;26253;-33
2022/01/11 01:11:16;;;;;;;1.50;1.40;;;;;;;;;;1878075;75;26285;-30
2022/01/11 01:13:43;;;;;;;1.30;1.30;;;;;;;;;;1880319;74;26282;-29
2022/01/11 01:16:11;;;;;;;1.40;1.40;;;;;;;;;;1872435;75;26238;-27
2022/01/11 01:18:38;;;;;;;1.07;1.07;;;;;;;;;;1879614;75;26743;-29
2022/01/11 01:21:05;;;;;;;1.20;1.20;;;;;;;;;;1878850;75;26187;-36
2022/01/11 01:23:33;;;;;;;1.45;1.45;;;;;;;;;;1882370;75;26679;-30
2022/01/11 01:26:01;;;;;;;1.45;1.45;;;;;;;;;;1876745;75;26296;-31
2022/01/11 01:28:29;;;;;;;1.40;1.40;;;;;;;;;;1880538;74;26296;-30
2022/01/11 01:31:00;;;;;;;1.60;1.50;;;;;;;;;;1880576;74;26303;-31
2022/01/11 01:33:25;;;;;;;1.40;1.40;;;;;;;;;;1878149;74;26276;-31
2022/01/11 01:35:59;;;;;;;1.20;1.20;;;;;;;;;;1876679;75;27406;-37
2022/01/11 01:38:24;;;;;;;1.30;1.30;;;;;;;;;;1873764;75;26264;-28
2022/01/11 01:40:51;;;;;;;1.62;1.52;;;;;;;;;;1874465;74;26316;-27
2022/01/11 01:43:20;;;;;;;1.37;1.37;;;;;;;;;;1879170;75;26305;-29
2022/01/11 01:45:49;;;;;;;1.55;1.50;;;;;;;;;;1873354;75;26766;-26
2022/01/11 01:48:16;;;;;;;1.47;1.40;;;;;;;;;;1871677;75;26453;-37
2022/01/11 01:50:44;;;;;;;1.42;1.42;;;;;;;;;;1874377;75;26712;-28
2022/01/11 01:53:14;;;;;;;1.30;1.30;;;;;;;;;;1882761;75;26327;-31
2022/01/11 01:55:43;;;;;;;1.50;1.40;;;;;;;;;;1869302;75;26785;-29
2022/01/11 01:58:10;;;;;;;1.40;1.40;;;;;;;;;;1875007;75;26343;-28
2022/01/11 02:00:46;;;;;;;1.60;1.57;;;;;;;;;;1881676;75;26198;-32
2022/01/11 02:03:10;;;;;;;1.32;1.32;;;;;;;;;;1873419;75;26398;-35
2022/01/11 02:05:38;;;;;;;1.40;1.40;;;;;;;;;;1881556;74;26341;-29
2022/01/11 02:08:06;;;;;;;1.40;1.40;;;;;;;;;;1878640;75;26272;-33
2022/01/11 02:10:35;;;;;;;1.47;1.40;;;;;;;;;;1877082;75;26319;-29
2022/01/11 02:13:02;;;;;;;1.20;1.20;;;;;;;;;;1875737;75;26281;-29
2022/01/11 02:15:30;;;;;;;1.30;1.30;;;;;;;;;;1881276;75;26280;-31
2022/01/11 02:18:11;;;;;;;1.35;1.35;;;;;;;;;;1883002;75;26308;-29
2022/01/11 02:20:40;;;;;;;1.32;1.32;;;;;;;;;;1853311;75;26643;-30
2022/01/11 02:23:07;;;;;;;1.40;1.40;;;;;;;;;;1883584;75;27405;-29
2022/01/11 02:25:36;;;;;;;1.30;1.30;;;;;;;;;;1871563;75;26288;-37
2022/01/11 02:28:04;;;;;;;1.22;1.22;;;;;;;;;;1881907;75;26752;-32
2022/01/11 02:30:33;;;;;;;1.47;1.47;;;;;;;;;;1875468;75;26793;-32
2022/01/11 02:33:04;;;;;;;1.32;1.32;;;;;;;;;;1873364;75;26309;-31
2022/01/11 02:35:31;;;;;;;1.32;1.32;;;;;;;;;;1883418;75;26285;-25
2022/01/11 02:37:58;;;;;;;1.20;1.20;;;;;;;;;;1874374;75;26661;-28
2022/01/11 02:40:25;;;;;;;1.27;1.27;;;;;;;;;;1876918;75;25311;-29
2022/01/11 02:42:53;;;;;;;1.27;1.27;;;;;;;;;;1884431;74;26252;-25
2022/01/11 02:45:20;;;;;;;1.30;1.30;;;;;;;;;;1879960;75;26229;-33
2022/01/11 02:47:49;;;;;;;1.30;1.30;;;;;;;;;;1873914;75;27196;-26
2022/01/11 02:50:17;;;;;;;1.50;1.50;;;;;;;;;;1874894;76;26268;-36
2022/01/11 02:52:44;;;;;;;1.30;1.30;;;;;;;;;;1869144;76;26375;-29
2022/01/11 02:55:13;;;;;;;1.50;1.50;;;;;;;;;;1874212;76;26745;-31
2022/01/11 02:57:41;;;;;;;1.35;1.35;;;;;;;;;;1867839;76;27213;-34
2022/01/11 03:00:10;;;;;;;1.40;1.40;;;;;;;;;;1872918;76;26737;-30
2022/01/11 03:02:37;;;;;;;1.15;1.15;;;;;;;;;;1867742;76;26316;-29
2022/01/11 03:05:05;;;;;;;1.37;1.37;;;;;;;;;;1875329;76;26261;-32
2022/01/11 03:07:33;;;;;;;1.40;1.40;;;;;;;;;;1872041;74;26659;-25
2022/01/11 03:10:08;;;;;;;1.27;1.27;;;;;;;;;;1865872;76;26306;-30
2022/01/11 03:12:32;;;;;;;1.25;1.25;;;;;;;;;;1870953;75;26299;-32
2022/01/11 03:15:00;;;;;;;1.37;1.37;;;;;;;;;;1874067;76;26891;-34
2022/01/11 03:17:27;;;;;;;1.42;1.42;;;;;;;;;;1872874;76;26324;-29
2022/01/11 03:19:55;;;;;;;1.40;1.40;;;;;;;;;;1873998;76;26230;-26
2022/01/11 03:22:22;;;;;;;1.50;1.50;;;;;;;;;;1878332;74;26300;-28
2022/01/11 03:24:49;;;;;;;1.25;1.25;;;;;;;;;;1862078;76;26334;-31
2022/01/11 03:27:16;;;;;;;1.20;1.20;;;;;;;;;;1874273;74;26305;-32
2022/01/11 03:29:44;;;;;;;1.27;1.27;;;;;;;;;;1870873;74;26252;-30
2022/01/11 03:32:15;;;;;;;1.30;1.30;;;;;;;;;;1878482;76;26575;-33
2022/01/11 03:34:41;;;;;;;1.32;1.32;;;;;;;;;;1868629;74;26306;-26
2022/01/11 03:37:10;;;;;;;1.27;1.27;;;;;;;;;;1873435;76;26675;-28
2022/01/11 03:39:38;;;;;;;1.27;1.27;;;;;;;;;;1868201;76;26292;-35
2022/01/11 03:42:05;;;;;;;1.50;1.40;;;;;;;;;;1874229;74;26276;-36
2022/01/11 03:44:32;;;;;;;1.17;1.17;;;;;;;;;;1875377;76;26257;-31
2022/01/11 03:47:00;;;;;;;1.07;1.07;;;;;;;;;;1870269;76;25697;-33
2022/01/11 03:49:28;;;;;;;1.37;1.37;;;;;;;;;;1864202;76;26265;-26
2022/01/11 03:51:55;;;;;;;1.25;1.25;;;;;;;;;;1866891;76;26852;-25
2022/01/11 03:54:26;;;;;;;1.25;1.25;;;;;;;;;;1865433;76;26319;-29
2022/01/11 03:56:52;;;;;;;1.30;1.30;;;;;;;;;;1857112;76;26285;-33
2022/01/11 03:59:20;;;;;;;1.35;1.35;;;;;;;;;;1862697;76;26296;-28
2022/01/11 04:01:47;;;;;;;1.32;1.32;;;;;;;;;;1861131;76;26304;-25
2022/01/11 04:04:15;;;;;;;1.17;1.17;;;;;;;;;;1862743;76;26242;-30
2022/01/11 04:06:43;;;;;;;1.40;1.40;;;;;;;;;;1859858;76;26829;-31
2022/01/11 04:09:11;;;;;;;1.30;1.30;;;;;;;;;;1859334;76;26328;-31
2022/01/11 04:11:39;;;;;;;1.35;1.35;;;;;;;;;;1855227;76;26670;-26
2022/01/11 04:14:06;;;;;;;1.30;1.30;;;;;;;;;;1861121;76;26294;-33
2022/01/11 04:16:34;;;;;;;1.40;1.40;;;;;;;;;;1863152;76;26766;-29
2022/01/11 04:19:01;;;;;;;1.32;1.32;;;;;;;;;;1862457;76;26719;-35
2022/01/11 04:21:28;;;;;;;1.25;1.25;;;;;;;;;;1862385;76;26741;-33
2022/01/11 04:23:55;;;;;;;1.40;1.40;;;;;;;;;;1855556;76;26747;-35
2022/01/11 04:26:23;;;;;;;1.30;1.30;;;;;;;;;;1867913;76;26324;-27
2022/01/11 04:28:50;;;;;;;1.15;1.15;;;;;;;;;;1861610;76;26245;-30
2022/01/11 04:31:17;;;;;;;1.20;1.20;;;;;;;;;;1868553;76;26320;-27
2022/01/11 04:33:45;;;;;;;1.20;1.20;;;;;;;;;;1863655;76;27136;-27
2022/01/11 04:36:13;;;;;;;1.27;1.27;;;;;;;;;;1859695;76;26325;-27
2022/01/11 04:38:41;;;;;;;1.25;1.25;;;;;;;;;;1857741;76;26256;-33
2022/01/11 04:41:08;;;;;;;1.52;1.20;;;;;;;;;;1859650;76;26267;-28
2022/01/11 04:43:36;;;;;;;1.37;1.37;;;;;;;;;;1861775;75;26234;-30
2022/01/11 04:46:03;;;;;;;1.30;1.30;;;;;;;;;;1869391;76;26986;-33
2022/01/11 04:48:32;;;;;;;1.22;1.22;;;;;;;;;;1857503;76;26198;-30
2022/01/11 04:51:01;;;;;;;1.10;1.10;;;;;;;;;;1861084;76;26387;-32
2022/01/11 04:53:28;;;;;;;1.25;1.25;;;;;;;;;;1860877;76;26821;-26
2022/01/11 04:55:56;;;;;;;1.30;1.30;;;;;;;;;;1862359;76;26262;-26
2022/01/11 04:58:23;;;;;;;1.30;1.30;;;;;;;;;;1868901;76;26258;-30
2022/01/11 05:00:51;;;;;;;1.40;1.40;;;;;;;;;;1859031;76;26268;-35
2022/01/11 05:03:19;;;;;;;1.20;1.20;;;;;;;;;;1861453;76;26265;-27
2022/01/11 05:05:46;;;;;;;1.30;1.30;;;;;;;;;;1861933;76;26697;-30
2022/01/11 05:08:14;;;;;;;1.50;1.50;;;;;;;;;;1865746;76;26262;-32
2022/01/11 05:10:44;;;;;;;1.20;1.20;;;;;;;;;;1865693;76;26752;-31
2022/01/11 05:13:13;;;;;;;1.10;1.10;;;;;;;;;;1858192;76;26317;-32
2022/01/11 05:15:41;;;;;;;1.20;1.20;;;;;;;;;;1850434;75;26356;-30
2022/01/11 05:18:09;;;;;;;1.30;1.30;;;;;;;;;;1861024;76;26305;-31
2022/01/11 05:20:37;;;;;;;1.17;1.17;;;;;;;;;;1856145;76;26202;-31
2022/01/11 05:23:04;;;;;;;1.20;1.20;;;;;;;;;;1869670;75;26257;-33
2022/01/11 05:25:32;;;;;;;1.12;1.12;;;;;;;;;;1861519;76;26259;-39
2022/01/11 05:27:59;;;;;;;1.10;1.10;;;;;;;;;;1861162;76;26274;-32
2022/01/11 05:30:28;;;;;;;1.20;1.20;;;;;;;;;;1857153;76;26754;-32
2022/01/11 05:32:56;;;;;;;1.10;1.10;;;;;;;;;;1856909;76;26147;-35
2022/01/11 05:35:24;;;;;;;1.30;1.30;;;;;;;;;;1861645;75;26255;-31
2022/01/11 05:37:51;;;;;;;1.15;1.15;;;;;;;;;;1862004;75;26735;-26
2022/01/11 05:40:20;;;;;;;1.10;1.10;;;;;;;;;;1858680;76;26183;-26
2022/01/11 05:42:49;;;;;;;1.15;1.15;;;;;;;;;;1866081;76;26261;-28
2022/01/11 05:45:18;;;;;;;1.22;1.20;;;;;;;;;;1864218;76;26250;-28
2022/01/11 05:47:47;;;;;;;1.30;1.30;;;;;;;;;;1866840;76;27698;-31
2022/01/11 05:50:15;;;;;;;1.30;1.30;;;;;;;;;;1868283;74;26430;-31
2022/01/11 05:52:42;;;;;;;1.42;1.20;;;;;;;;;;1881646;75;26707;-28
2022/01/11 05:55:10;;;;;;;1.87;1.30;;;;;;;;;;1880527;74;26238;-31
2022/01/11 05:57:38;;;;;;;1.32;1.30;;;;;;;;;;1881617;75;26857;-32
2022/01/11 06:00:07;;;;;;;1.40;1.40;;;;;;;;;;1877712;75;26339;-29
2022/01/11 06:02:35;;;;;;;1.17;1.17;;;;;;;;;;1880998;75;26313;-31
2022/01/11 06:05:02;;;;;;;1.17;1.17;;;;;;;;;;1886011;75;26259;-31
2022/01/11 06:07:30;;;;;;;1.12;1.12;;;;;;;;;;1875847;75;26770;-26
2022/01/11 06:09:57;;;;;;;1.30;1.20;;;;;;;;;;1882327;75;26274;-30
2022/01/11 06:12:24;;;;;;;1.40;1.30;;;;;;;;;;1873956;75;26312;-35
2022/01/11 06:14:52;;;;;;;1.15;1.15;;;;;;;;;;1878784;75;26340;-34
2022/01/11 06:17:19;;;;;;;3.45;1.12;;;;;;;;;;1878612;75;26285;-32
2022/01/11 06:19:46;;;;;;;1.15;1.15;;;;;;;;;;1874736;75;26310;-33
2022/01/11 06:22:14;;;;;;;1.60;1.22;;;;;;;;;;1880364;75;26180;-33
2022/01/11 06:24:41;;;;;;;1.40;1.30;;;;;;;;;;1886599;74;26328;-28
2022/01/11 06:27:08;;;;;;;1.50;1.40;;;;;;;;;;1881094;75;26257;-29
2022/01/11 06:29:35;;;;;;;2.15;1.27;;;;;;;;;;1878957;74;26913;-38
2022/01/11 06:32:03;;;;;;;2.30;1.35;;;;;;;;;;1871818;75;26846;-29
2022/01/11 06:34:30;;;;;;;1.20;1.20;;;;;;;;;;1875819;75;26260;-33
2022/01/11 06:36:59;;;;;;;1.82;1.17;;;;;;;;;;1875554;75;26257;-32
2022/01/11 06:39:29;;;;;;;1.02;1.02;;;;;;;;;;1881822;75;26328;-29
2022/01/11 06:41:56;;;;;;;1.50;1.40;;;;;;;;;;1876960;75;26332;-27
2022/01/11 06:44:23;;;;;;;1.60;1.30;;;;;;;;;;1877688;74;26218;-33
2022/01/11 06:46:50;;;;;;;1.40;1.40;;;;;;;;;;1874328;75;26308;-33
2022/01/11 06:49:17;;;;;;;1.40;1.30;;;;;;;;;;1870432;75;26354;-27
2022/01/11 06:51:45;;;;;;;1.20;1.20;;;;;;;;;;1864036;75;26383;-38
2022/01/11 06:54:12;;;;;;;2.02;1.30;;;;;;;;;;1865820;75;26316;-32
2022/01/11 06:56:39;;;;;;;2.85;1.40;;;;;;;;;;1871914;75;26657;-30
2022/01/11 06:59:07;;;;;;;1.62;1.45;;;;;;;;;;1861062;76;26336;-33
2022/01/11 07:01:35;;;;;;;1.60;1.50;;;;;;;;;;1861226;76;26622;-33
2022/01/11 07:04:02;;;;;;;1.72;1.62;;;;;;;;;;1860276;76;26258;-32
2022/01/11 07:06:29;;;;;;;1.65;1.47;;;;;;;;;;1864018;76;26329;-34
2022/01/11 07:08:56;;;;;;;2.27;1.62;;;;;;;;;;1866390;76;26267;-38
2022/01/11 07:11:24;;;;;;;1.50;1.50;;;;;;;;;;1865459;76;26235;-30
2022/01/11 07:13:51;;;;;;;1.80;1.70;;;;;;;;;;1857136;76;26320;-26
2022/01/11 07:16:19;;;;;;;1.72;1.62;;;;;;;;;;1863283;76;26268;-28
2022/01/11 07:18:47;;;;;;;1.55;1.45;;;;;;;;;;1862197;75;26249;-26
2022/01/11 07:21:14;;;;;;;1.82;1.72;;;;;;;;;;1855331;75;26344;-32
2022/01/11 07:23:42;;;;;;;2.08;1.72;;;;;;;;;;1867269;76;26788;-31
2022/01/11 07:26:09;;;;;;;1.87;1.77;;;;;;;;;;1859295;75;26725;-30
2022/01/11 07:28:36;;;;;;;2.95;1.70;;;;;;;;;;1861302;75;26245;-32
2022/01/11 07:31:04;;;;;;;1.80;1.70;;;;;;;;;;1870763;76;25606;-30
2022/01/11 07:33:31;;;;;;;1.80;1.70;;;;;;;;;;1862909;76;26250;-29
2022/01/11 07:35:59;;;;;;;1.65;1.50;;;;;;;;;;1855836;76;26313;-30
2022/01/11 07:38:26;;;;;;;1.70;1.60;;;;;;;;;;1862078;76;26352;-32
2022/01/11 07:40:53;;;;;;;1.60;1.60;;;;;;;;;;1854723;76;26669;-32
2022/01/11 07:43:21;;;;;;;1.35;1.35;;;;;;;;;;1860615;75;26700;-32
2022/01/11 07:45:48;;;;;;;1.42;1.42;;;;;;;;;;1861612;76;26299;-31
2022/01/11 07:48:15;;;;;;;1.85;1.75;;;;;;;;;;1858251;76;26242;-38
2022/01/11 07:50:42;;;;;;;2.00;1.60;;;;;;;;;;1863480;75;26284;-25
2022/01/11 07:53:10;;;;;;;1.82;1.72;;;;;;;;;;1876338;75;26307;-28
2022/01/11 07:55:38;;;;;;;1.70;1.60;;;;;;;;;;1876320;75;26245;-28
2022/01/11 07:58:05;;;;;;;1.60;1.60;;;;;;;;;;1875502;75;26381;-32
2022/01/11 08:00:32;;;;;;;1.70;1.60;;;;;;;;;;1878949;75;26235;-36
2022/01/11 08:03:00;;;;;;;2.12;1.50;;;;;;;;;;1876753;75;26253;-30
2022/01/11 08:05:27;;;;;;;1.35;1.30;;;;;;;;;;1881545;74;26240;-34
2022/01/11 08:07:55;;;;;;;2.08;1.60;;;;;;;;;;1878032;75;26241;-28
2022/01/11 08:10:22;;;;;;;1.50;1.40;;;;;;;;;;1872472;75;26283;-28
2022/01/11 08:12:49;;;;;;;1.47;1.42;;;;;;;;;;1881883;74;26722;-31
2022/01/11 08:15:16;;;;;;;1.42;1.42;;;;;;;;;;1878489;74;26767;-31
2022/01/11 08:17:44;;;;;;;1.57;1.50;;;;;;;;;;1872793;74;26825;-26
2022/01/11 08:20:11;;;;;;;1.42;1.32;;;;;;;;;;1876569;75;26264;-32
2022/01/11 08:22:39;;;;;;;2.17;1.50;;;;;;;;;;1880400;75;26623;-25
2022/01/11 08:25:07;;;;;;;1.60;1.50;;;;;;;;;;1874075;75;26280;-32
2022/01/11 08:27:34;;;;;;;1.30;1.30;;;;;;;;;;1878914;75;26727;-27
2022/01/11 08:30:03;;;;;;;2.45;1.20;;;;;;;;;;1880353;75;26335;-33
2022/01/11 08:32:31;;;;;;;1.45;1.40;;;;;;;;;;1880403;75;26260;-31
2022/01/11 08:34:58;;;;;;;1.32;1.32;;;;;;;;;;1875762;74;26262;-26
2022/01/11 08:37:25;;;;;;;1.52;1.40;;;;;;;;;;1870456;75;26869;-30
2022/01/11 08:39:53;;;;;;;1.40;1.30;;;;;;;;;;1882449;75;26772;-31
2022/01/11 08:42:20;;;;;;;1.35;1.30;;;;;;;;;;1874671;75;26354;-27
2022/01/11 08:44:49;;;;;;;1.30;1.30;;;;;;;;;;1874329;75;26817;-42
2022/01/11 08:47:18;;;;;;;1.17;1.17;;;;;;;;;;1876647;74;26774;-31
2022/01/11 08:49:46;;;;;;;1.32;1.32;;;;;;;;;;1879308;75;26315;-27
2022/01/11 08:52:14;;;;;;;2.02;1.25;;;;;;;;;;1865270;75;26841;-32
2022/01/11 08:54:42;;;;;;;1.40;1.30;;;;;;;;;;1865927;76;26323;-30
2022/01/11 08:57:09;;;;;;;2.30;1.47;;;;;;;;;;1860464;76;26722;-28
2022/01/11 08:59:37;;;;;;;1.37;1.37;;;;;;;;;;1852795;75;28167;-31
2022/01/11 09:02:05;;;;;;;3.02;1.40;;;;;;;;;;1861086;75;26760;-36
2022/01/11 09:04:32;;;;;;;1.25;1.25;;;;;;;;;;1864475;76;26254;-29
2022/01/11 09:07:00;;;;;;;1.30;1.30;;;;;;;;;;1851442;76;26737;-34
2022/01/11 09:09:28;;;;;;;1.30;1.30;;;;;;;;;;1859950;76;26254;-27
2022/01/11 09:11:57;;;;;;;1.30;1.30;;;;;;;;;;1858502;76;26708;-31
2022/01/11 09:14:24;;;;;;;1.32;1.22;;;;;;;;;;1863302;76;26796;-27
2022/01/11 09:16:52;;;;;;;1.20;1.20;;;;;;;;;;1868651;76;26234;-34
2022/01/11 09:19:19;;;;;;;1.20;1.20;;;;;;;;;;1864144;76;26257;-28
2022/01/11 09:21:47;;;;;;;1.42;1.35;;;;;;;;;;1863546;75;26312;-30
2022/01/11 09:24:19;;;;;;;1.30;1.30;;;;;;;;;;1857329;75;26298;-31
2022/01/11 09:26:43;;;;;;;1.15;1.10;;;;;;;;;;1863492;76;26330;-28
2022/01/11 09:29:10;;;;;;;1.15;1.15;;;;;;;;;;1867722;76;26360;-33
2022/01/11 09:31:38;;;;;;;1.30;1.30;;;;;;;;;;1868058;75;26321;-29
2022/01/11 09:34:05;;;;;;;1.47;1.47;;;;;;;;;;1864522;76;26334;-34
2022/01/11 09:36:32;;;;;;;1.20;1.20;;;;;;;;;;1863683;75;26325;-30
2022/01/11 09:39:00;;;;;;;1.10;1.10;;;;;;;;;;1860334;76;26280;-33
2022/01/11 09:41:27;;;;;;;1.20;1.20;;;;;;;;;;1866562;76;26367;-35
2022/01/11 09:43:54;;;;;;;1.85;1.22;;;;;;;;;;1864699;76;26734;-30
2022/01/11 09:46:23;;;;;;;1.35;1.35;;;;;;;;;;1863891;76;26323;-31
2022/01/11 09:48:51;;;;;;;1.40;1.40;;;;;;;;;;1862672;75;26259;-26
2022/01/11 09:51:18;;;;;;;1.40;1.40;;;;;;;;;;1863038;75;26267;-30
2022/01/11 09:53:46;;;;;;;1.40;1.40;;;;;;;;;;1864308;75;26293;-31
2022/01/11 09:56:14;;;;;;;1.32;1.32;;;;;;;;;;1858539;76;26278;-26
2022/01/11 09:58:42;;;;;;;1.47;1.47;;;;;;;;;;1863602;76;26312;-33
2022/01/11 10:01:09;;;;;;;1.20;1.20;;;;;;;;;;1864362;76;26254;-28
2022/01/11 10:03:54;;;;;;;1.37;1.37;;;;;;;;;;1857062;76;26309;-27
2022/01/11 10:06:24;;;;;;;1.47;1.37;;;;;;;;;;1857469;75;26354;-30
2022/01/11 10:08:51;;;;;;;1.30;1.30;;;;;;;;;;1859605;76;26331;-27
2022/01/11 10:11:36;;;;;;;1.40;1.40;;;;;;;;;;1862132;75;26778;-28
2022/01/11 10:14:21;;;;;;;1.57;1.57;;;;;;;;;;1862447;76;26852;-29
2022/01/11 10:16:49;;;;;;;2.35;1.30;;;;;;;;;;1858100;76;26383;-26
2022/01/11 10:19:26;;;;;;;1.27;1.27;;;;;;;;;;1863826;76;26705;-27
2022/01/11 10:21:56;;;;;;;1.50;1.50;;;;;;;;;;1856592;75;26260;-30
2022/01/11 10:24:25;;;;;;;1.32;1.32;;;;;;;;;;1864974;76;26811;-25
2022/01/11 10:26:53;;;;;;;1.25;1.25;;;;;;;;;;1866618;76;26334;-30
2022/01/11 10:29:25;;;;;;;1.30;1.30;;;;;;;;;;1862379;76;26349;-29
2022/01/11 10:31:52;;;;;;;1.37;1.37;;;;;;;;;;1859330;76;26314;-31
2022/01/11 10:34:33;;;;;;;8.60;1.50;;;;;;;;;;1856974;76;26354;-32
2022/01/11 10:37:01;;;;;;;1.30;1.30;;;;;;;;;;1862919;76;26737;-24
2022/01/11 10:39:30;;;;;;;1.30;1.30;;;;;;;;;;1864569;76;26328;-26
2022/01/11 10:41:58;;;;;;;1.50;1.50;;;;;;;;;;1858988;76;26701;-25
2022/01/11 10:44:47;;;;;;;1.27;1.27;;;;;;;;;;1864510;76;26947;-29
2022/01/11 10:47:18;;;;;;;1.70;1.20;;;;;;;;;;1861973;76;26296;-28
2022/01/11 10:49:46;;;;;;;1.30;1.30;;;;;;;;;;1862984;76;26840;-29
2022/01/11 10:52:20;;;;;;;1.30;1.30;;;;;;;;;;1867216;75;26654;-32
2022/01/11 10:54:49;;;;;;;1.27;1.20;;;;;;;;;;1879640;75;26231;-26
2022/01/11 10:57:17;;;;;;;1.42;1.40;;;;;;;;;;1882185;75;26262;-28
2022/01/11 10:59:46;;;;;;;1.30;1.30;;;;;;;;;;1881630;75;26246;-35
2022/01/11 11:02:15;;;;;;;1.27;1.27;;;;;;;;;;1876235;75;26257;-28
2022/01/11 11:04:42;;;;;;;1.30;1.30;;;;;;;;;;1878081;75;26256;-29
2022/01/11 11:07:10;;;;;;;1.40;1.30;;;;;;;;;;1886047;74;26297;-29
2022/01/11 11:09:49;;;;;;;1.20;1.20;;;;;;;;;;1875346;75;26235;-28
2022/01/11 11:12:17;;;;;;;1.40;1.40;;;;;;;;;;1874075;74;26773;-32
2022/01/11 11:14:48;;;;;;;1.20;1.20;;;;;;;;;;1880159;74;26348;-30
2022/01/11 11:17:25;;;;;;;1.40;1.40;;;;;;;;;;1882608;75;26288;-30
2022/01/11 11:19:57;;;;;;;1.30;1.30;;;;;;;;;;1877850;75;26316;-33
2022/01/11 11:22:25;;;;;;;1.17;1.17;;;;;;;;;;1879353;74;26258;-31
2022/01/11 11:24:56;;;;;;;1.20;1.20;;;;;;;;;;1878179;75;25814;-29
2022/01/11 11:27:24;;;;;;;1.00;1.00;;;;;;;;;;1870064;75;26327;-28
2022/01/11 11:29:52;;;;;;;1.10;1.10;;;;;;;;;;1872235;75;26284;-28
2022/01/11 11:32:20;;;;;;;1.20;1.20;;;;;;;;;;1882666;75;26731;-32
2022/01/11 11:34:51;;;;;;;1.22;1.07;;;;;;;;;;1873441;75;26867;-28
2022/01/11 11:37:20;;;;;;;1.10;1.10;;;;;;;;;;1874076;75;26282;-35
2022/01/11 11:39:48;;;;;;;1.85;1.20;;;;;;;;;;1878070;75;26358;-27
2022/01/11 11:42:17;;;;;;;1.27;1.27;;;;;;;;;;1877796;75;26249;-32
2022/01/11 11:44:46;;;;;;;1.20;1.20;;;;;;;;;;1874742;75;26273;-31
2022/01/11 11:47:13;;;;;;;1.37;1.32;;;;;;;;;;1880073;75;26556;-34
2022/01/11 11:49:45;;;;;;;1.20;1.20;;;;;;;;;;1873480;75;26245;-30
2022/01/11 11:52:20;;;;;;;2.25;1.20;;;;;;;;;;1872875;75;26275;-34
2022/01/11 11:54:49;;;;;;;1.20;1.20;;;;;;;;;;1854012;76;26243;-34
2022/01/11 11:57:17;;;;;;;1.20;1.20;;;;;;;;;;1859622;76;26266;-34
2022/01/11 12:00:01;;;;;;;1.02;1.02;;;;;;;;;;1868086;76;26273;-35
2022/01/11 12:02:32;;;;;;;1.10;1.10;;;;;;;;;;1858805;76;26242;-28
2022/01/11 12:05:00;;;;;;;1.07;1.07;;;;;;;;;;1866438;76;26844;-34
2022/01/11 12:07:34;;;;;;;1.32;1.22;;;;;;;;;;1865053;75;26247;-32
2022/01/11 12:10:00;;;;;;;1.42;1.20;;;;;;;;;;1857089;76;26247;-29
2022/01/11 12:12:29;;;;;;;1.07;1.07;;;;;;;;;;1868481;76;26422;-31
2022/01/11 12:14:57;;;;;;;1.22;1.20;;;;;;;;;;1860870;76;26229;-29
2022/01/11 12:17:24;;;;;;;1.22;1.20;;;;;;;;;;1856035;76;26818;-29
2022/01/11 12:19:53;;;;;;;1.10;1.10;;;;;;;;;;1859130;76;26354;-30
2022/01/11 12:22:22;;;;;;;1.20;1.20;;;;;;;;;;1858636;76;26312;-32
2022/01/11 12:24:51;;;;;;;1.00;1.00;;;;;;;;;;1864701;76;26191;-30
2022/01/11 12:27:21;;;;;;;1.05;1.05;;;;;;;;;;1862733;76;26650;-29
2022/01/11 12:29:59;;;;;;;1.00;1.00;;;;;;;;;;1864108;76;26254;-27
2022/01/11 12:32:28;;;;;;;1.10;1.10;;;;;;;;;;1864055;75;26697;-27
2022/01/11 12:34:56;;;;;;;1.00;1.00;;;;;;;;;;1858260;76;26339;-38
2022/01/11 12:37:25;;;;;;;1.00;1.00;;;;;;;;;;1866227;76;26274;-33
2022/01/11 12:40:06;;;;;;;1.00;1.00;;;;;;;;;;1863185;76;26305;-31
2022/01/11 12:42:34;;;;;;;1.00;1.00;;;;;;;;;;1862825;76;26682;-31
2022/01/11 12:47:34;;;;;;;1.57;1.00;;;;;;;;;;1861513;76;26746;-28
2022/01/11 12:50:03;;;;;;;0.98;0.98;;;;;;;;;;1860741;76;26263;-32
2022/01/11 12:52:31;;;;;;;1.10;1.10;;;;;;;;;;1865257;76;26328;-31
2022/01/11 12:54:59;;;;;;;1.00;1.00;;;;;;;;;;1861888;76;26370;-27
2022/01/11 12:57:28;;;;;;;0.90;0.90;;;;;;;;;;1869629;76;26711;-28
2022/01/11 12:59:57;;;;;;;1.00;1.00;;;;;;;;;;1865263;76;26842;-29
2022/01/11 13:02:26;;;;;;;1.05;1.02;;;;;;;;;;1860493;76;26300;-37
2022/01/11 13:04:55;;;;;;;1.00;1.00;;;;;;;;;;1863910;75;26290;-28
2022/01/11 13:07:27;;;;;;;1.10;1.10;;;;;;;;;;1860583;76;26281;-30
2022/01/11 13:10:08;;;;;;;0.82;0.82;;;;;;;;;;1864945;76;26254;-31
2022/01/11 13:12:37;;;;;;;1.00;1.00;;;;;;;;;;1861816;76;26324;-29
2022/01/11 13:15:13;;;;;;;0.90;0.90;;;;;;;;;;1861380;75;26002;-25
2022/01/11 13:17:48;;;;;;;0.88;0.88;;;;;;;;;;1855971;76;26311;-37
2022/01/11 13:20:16;;;;;;;1.00;1.00;;;;;;;;;;1857235;76;26278;-36
2022/01/11 13:23:06;;;;;;;1.95;0.95;;;;;;;;;;1866462;75;27306;-32
2022/01/11 13:25:37;;;;;;;1.10;1.10;;;;;;;;;;1862882;75;26849;-30
2022/01/11 13:28:05;;;;;;;0.80;0.80;;;;;;;;;;1853784;76;26264;-27
2022/01/11 13:30:34;;;;;;;0.90;0.90;;;;;;;;;;1865239;76;26804;-30
2022/01/11 13:33:01;;;;;;;1.00;1.00;;;;;;;;;;1861809;76;26654;-29
2022/01/11 13:35:28;;;;;;;1.10;1.10;;;;;;;;;;1855463;76;26702;-29
2022/01/11 13:37:56;;;;;;;1.02;0.90;;;;;;;;;;1851352;76;26359;-29
2022/01/11 13:40:27;;;;;;;0.90;0.90;;;;;;;;;;1860769;76;26627;-36
2022/01/11 13:43:01;;;;;;;0.90;0.90;;;;;;;;;;1858177;76;26237;-29
2022/01/11 13:45:35;;;;;;;1.00;1.00;;;;;;;;;;1868541;76;26341;-34
2022/01/11 13:48:09;;;;;;;2.70;1.15;;;;;;;;;;1859400;76;26191;-29
2022/01/11 13:50:47;;;;;;;0.90;0.90;;;;;;;;;;1857916;75;26242;-29
2022/01/11 13:53:24;;;;;;;0.85;0.85;;;;;;;;;;1864103;75;26269;-33
2022/01/11 13:55:53;;;;;;;1.07;1.07;;;;;;;;;;1880161;75;26278;-31
2022/01/11 13:58:21;;;;;;;0.88;0.88;;;;;;;;;;1882426;75;26254;-33
2022/01/11 14:00:49;;;;;;;0.90;0.90;;;;;;;;;;1875334;74;26714;-29
2022/01/11 14:03:18;;;;;;;1.05;0.82;;;;;;;;;;1879281;75;26583;-29
2022/01/11 14:05:46;;;;;;;0.90;0.90;;;;;;;;;;1881771;74;26240;-30
2022/01/11 14:08:13;;;;;;;0.88;0.88;;;;;;;;;;1875481;74;26323;-30
2022/01/11 14:10:52;;;;;;;0.90;0.90;;;;;;;;;;1878078;75;26319;-32
2022/01/11 14:13:16;;;;;;;1.00;1.00;;;;;;;;;;1876028;75;26354;-31
2022/01/11 14:15:44;;;;;;;1.00;1.00;;;;;;;;;;1880301;75;26309;-27
2022/01/11 14:18:12;;;;;;;1.00;0.90;;;;;;;;;;1886974;74;26723;-29
2022/01/11 14:20:41;;;;;;;0.90;0.90;;;;;;;;;;1879643;74;26293;-33
2022/01/11 14:23:16;;;;;;;1.00;1.00;;;;;;;;;;1880661;75;26334;-30
2022/01/11 14:25:44;;;;;;;1.52;0.93;;;;;;;;;;1879816;75;26307;-33
2022/01/11 14:28:13;;;;;;;0.90;0.90;;;;;;;;;;1879485;75;26348;-34
2022/01/11 14:30:48;;;;;;;1.00;1.00;;;;;;;;;;1879763;75;26258;-28
2022/01/11 14:33:26;;;;;;;0.93;0.90;;;;;;;;;;1873092;75;26272;-34
2022/01/11 14:36:01;;;;;;;0.80;0.80;;;;;;;;;;1875963;75;26705;-35
2022/01/11 14:38:49;;;;;;;1.00;1.00;;;;;;;;;;1879485;75;26308;-27
2022/01/11 14:41:18;;;;;;;1.50;0.80;;;;;;;;;;1878514;75;26364;-36
2022/01/11 14:43:56;;;;;;;2.02;0.90;;;;;;;;;;1880855;75;26667;-36
2022/01/11 14:46:24;;;;;;;0.90;0.90;;;;;;;;;;1885790;75;26331;-39
2022/01/11 14:48:52;;;;;;;0.75;0.75;;;;;;;;;;1879185;74;26320;-31
2022/01/11 14:51:23;;;;;;;0.90;0.90;;;;;;;;;;1871763;75;26221;-29
2022/01/11 14:53:53;;;;;;;0.95;0.95;;;;;;;;;;1876796;75;26242;-33
2022/01/11 14:56:23;;;;;;;1.00;1.00;;;;;;;;;;1880364;75;26733;-32